sensor_id;sensor_type;location;lat;lon;timestamp;temperature;humidity
736;DHT22;352;48.626;9.238;2023-05-21T00:01:38;17.20;99.90
736;DHT22;352;48.626;9.238;2023-05-21T00:04:05;17.10;99.90
736;DHT22;352;48.626;9.238;2023-05-21T00:06:32;17.10;99.90
736;DHT22;352;48.626;9.238;2023-05-21T00:09:00;17.10;99.90
736;DHT22;352;48.626;9.238;2023-05-21T00:11:29;17.10;99.90
736;DHT22;352;48.626;9.238;2023-05-21T00:13:56;17.10;99.90
736;DHT22;352;48.626;9.238;2023-05-21T00:16:24;17.10;99.90
736;DHT22;352;48.626;9.238;2023-05-21T00:18:50;17.20;99.90
736;DHT22;352;48.626;9.238;2023-05-21T00:21:19;17.00;99.90
736;DHT22;352;48.626;9.238;2023-05-21T00:23:47;17.00;99.90
736;DHT22;352;48.626;9.238;2023-05-21T00:26:14;17.00;99.90
736;DHT22;352;48.626;9.238;2023-05-21T00:28:42;17.00;99.90
736;DHT22;352;48.626;9.238;2023-05-21T00:31:08;16.90;99.90
736;DHT22;352;48.626;9.238;2023-05-21T00:33:35;16.90;99.90
736;DHT22;352;48.626;9.238;2023-05-21T00:36:02;16.90;99.90
736;DHT22;352;48.626;9.238;2023-05-21T00:38:30;16.90;99.90
736;DHT22;352;48.626;9.238;2023-05-21T00:40:59;16.90;99.90
736;DHT22;352;48.626;9.238;2023-05-21T00:43:26;16.80;99.90
736;DHT22;352;48.626;9.238;2023-05-21T00:45:54;16.80;99.90
736;DHT22;352;48.626;9.238;2023-05-21T00:48:23;16.80;99.90
736;DHT22;352;48.626;9.238;2023-05-21T00:50:50;16.80;99.90
736;DHT22;352;48.626;9.238;2023-05-21T00:53:18;16.80;99.90
736;DHT22;352;48.626;9.238;2023-05-21T00:55:45;16.80;99.90
736;DHT22;352;48.626;9.238;2023-05-21T00:58:12;16.70;99.90
736;DHT22;352;48.626;9.238;2023-05-21T01:00:39;16.70;99.90
736;DHT22;352;48.626;9.238;2023-05-21T01:03:07;16.80;99.90
736;DHT22;352;48.626;9.238;2023-05-21T01:05:35;16.70;99.90
736;DHT22;352;48.626;9.238;2023-05-21T01:08:02;16.70;99.90
736;DHT22;352;48.626;9.238;2023-05-21T01:10:29;16.70;99.90
736;DHT22;352;48.626;9.238;2023-05-21T01:12:57;16.60;99.90
736;DHT22;352;48.626;9.238;2023-05-21T01:15:24;16.60;99.90
736;DHT22;352;48.626;9.238;2023-05-21T01:17:51;16.60;99.90
736;DHT22;352;48.626;9.238;2023-05-21T01:20:22;16.60;99.90
736;DHT22;352;48.626;9.238;2023-05-21T01:22:52;16.60;99.90
736;DHT22;352;48.626;9.238;2023-05-21T01:25:19;16.50;99.90
736;DHT22;352;48.626;9.238;2023-05-21T01:27:46;16.50;99.90
736;DHT22;352;48.626;9.238;2023-05-21T01:30:13;16.50;99.90
736;DHT22;352;48.626;9.238;2023-05-21T01:32:44;16.40;99.90
736;DHT22;352;48.626;9.238;2023-05-21T01:35:18;16.40;99.90
736;DHT22;352;48.626;9.238;2023-05-21T01:37:50;16.40;99.90
736;DHT22;352;48.626;9.238;2023-05-21T01:40:24;16.40;99.90
736;DHT22;352;48.626;9.238;2023-05-21T01:42:51;16.30;99.90
736;DHT22;352;48.626;9.238;2023-05-21T01:45:19;16.30;99.90
736;DHT22;352;48.626;9.238;2023-05-21T01:47:49;16.30;99.90
736;DHT22;352;48.626;9.238;2023-05-21T01:50:17;16.30;99.90
736;DHT22;352;48.626;9.238;2023-05-21T01:52:51;16.30;99.90
736;DHT22;352;48.626;9.238;2023-05-21T01:55:19;16.20;99.90
736;DHT22;352;48.626;9.238;2023-05-21T01:57:49;16.20;99.90
736;DHT22;352;48.626;9.238;2023-05-21T02:00:17;16.20;99.90
736;DHT22;352;48.626;9.238;2023-05-21T02:02:44;16.20;99.90
736;DHT22;352;48.626;9.238;2023-05-21T02:05:11;16.20;99.90
736;DHT22;352;48.626;9.238;2023-05-21T02:07:38;16.20;99.90
736;DHT22;352;48.626;9.238;2023-05-21T02:10:05;16.20;99.90
736;DHT22;352;48.626;9.238;2023-05-21T02:12:34;16.10;99.90
736;DHT22;352;48.626;9.238;2023-05-21T02:15:01;16.10;99.90
736;DHT22;352;48.626;9.238;2023-05-21T02:17:28;16.10;99.90
736;DHT22;352;48.626;9.238;2023-05-21T02:19:58;16.10;99.90
736;DHT22;352;48.626;9.238;2023-05-21T02:22:31;16.10;99.90
736;DHT22;352;48.626;9.238;2023-05-21T02:24:58;16.00;99.90
736;DHT22;352;48.626;9.238;2023-05-21T02:27:24;16.00;99.90
736;DHT22;352;48.626;9.238;2023-05-21T02:29:55;16.00;99.90
736;DHT22;352;48.626;9.238;2023-05-21T02:32:22;16.00;99.90
736;DHT22;352;48.626;9.238;2023-05-21T02:34:49;16.00;99.90
736;DHT22;352;48.626;9.238;2023-05-21T02:37:16;16.00;99.90
736;DHT22;352;48.626;9.238;2023-05-21T02:39:44;16.00;99.90
736;DHT22;352;48.626;9.238;2023-05-21T02:42:11;15.90;99.90
736;DHT22;352;48.626;9.238;2023-05-21T02:44:37;16.00;99.90
736;DHT22;352;48.626;9.238;2023-05-21T02:47:06;15.90;99.90
736;DHT22;352;48.626;9.238;2023-05-21T02:49:34;15.90;99.90
736;DHT22;352;48.626;9.238;2023-05-21T02:52:01;15.90;99.90
736;DHT22;352;48.626;9.238;2023-05-21T02:54:28;15.90;99.90
736;DHT22;352;48.626;9.238;2023-05-21T02:56:55;15.90;99.90
736;DHT22;352;48.626;9.238;2023-05-21T02:59:22;15.90;99.90
736;DHT22;352;48.626;9.238;2023-05-21T03:01:48;15.90;99.90
736;DHT22;352;48.626;9.238;2023-05-21T03:04:16;15.90;99.90
736;DHT22;352;48.626;9.238;2023-05-21T03:06:46;15.90;99.90
736;DHT22;352;48.626;9.238;2023-05-21T03:09:13;15.80;99.90
736;DHT22;352;48.626;9.238;2023-05-21T03:11:39;15.80;99.90
736;DHT22;352;48.626;9.238;2023-05-21T03:14:06;15.80;99.90
736;DHT22;352;48.626;9.238;2023-05-21T03:16:34;15.80;99.90
736;DHT22;352;48.626;9.238;2023-05-21T03:19:02;15.70;99.90
736;DHT22;352;48.626;9.238;2023-05-21T03:21:30;15.70;99.90
736;DHT22;352;48.626;9.238;2023-05-21T03:23:58;15.70;99.90
736;DHT22;352;48.626;9.238;2023-05-21T03:26:26;15.70;99.90
736;DHT22;352;48.626;9.238;2023-05-21T03:28:53;15.70;99.90
736;DHT22;352;48.626;9.238;2023-05-21T03:31:20;15.60;99.90
736;DHT22;352;48.626;9.238;2023-05-21T03:33:47;15.60;99.90
736;DHT22;352;48.626;9.238;2023-05-21T03:36:14;15.60;99.90
736;DHT22;352;48.626;9.238;2023-05-21T03:38:42;15.60;99.90
736;DHT22;352;48.626;9.238;2023-05-21T03:41:09;15.50;99.90
736;DHT22;352;48.626;9.238;2023-05-21T03:43:36;15.60;99.90
736;DHT22;352;48.626;9.238;2023-05-21T03:46:03;15.50;99.90
736;DHT22;352;48.626;9.238;2023-05-21T03:48:30;15.50;99.90
736;DHT22;352;48.626;9.238;2023-05-21T03:50:56;15.50;99.90
736;DHT22;352;48.626;9.238;2023-05-21T03:53:23;15.50;99.90
736;DHT22;352;48.626;9.238;2023-05-21T03:55:51;15.50;99.90
736;DHT22;352;48.626;9.238;2023-05-21T03:58:20;15.40;99.90
736;DHT22;352;48.626;9.238;2023-05-21T04:00:48;15.40;99.90
736;DHT22;352;48.626;9.238;2023-05-21T04:03:15;15.40;99.90
736;DHT22;352;48.626;9.238;2023-05-21T04:05:42;15.40;99.90
736;DHT22;352;48.626;9.238;2023-05-21T04:08:09;15.40;99.90
736;DHT22;352;48.626;9.238;2023-05-21T04:10:36;15.40;99.90
736;DHT22;352;48.626;9.238;2023-05-21T04:13:04;15.40;99.90
736;DHT22;352;48.626;9.238;2023-05-21T04:15:31;15.40;99.90
736;DHT22;352;48.626;9.238;2023-05-21T04:17:59;15.40;99.90
736;DHT22;352;48.626;9.238;2023-05-21T04:20:25;15.30;99.90
736;DHT22;352;48.626;9.238;2023-05-21T04:22:52;15.30;99.90
736;DHT22;352;48.626;9.238;2023-05-21T04:25:19;15.30;99.90
736;DHT22;352;48.626;9.238;2023-05-21T04:27:47;15.30;99.90
736;DHT22;352;48.626;9.238;2023-05-21T04:30:15;15.30;99.90
736;DHT22;352;48.626;9.238;2023-05-21T04:32:44;15.30;99.90
736;DHT22;352;48.626;9.238;2023-05-21T04:35:12;15.30;99.90
736;DHT22;352;48.626;9.238;2023-05-21T04:37:40;15.40;99.90
736;DHT22;352;48.626;9.238;2023-05-21T04:40:10;15.40;99.90
736;DHT22;352;48.626;9.238;2023-05-21T04:42:42;15.40;99.90
736;DHT22;352;48.626;9.238;2023-05-21T04:45:09;15.40;99.90
736;DHT22;352;48.626;9.238;2023-05-21T04:47:38;15.40;99.90
736;DHT22;352;48.626;9.238;2023-05-21T04:50:06;15.40;99.90
736;DHT22;352;48.626;9.238;2023-05-21T04:52:33;15.40;99.90
736;DHT22;352;48.626;9.238;2023-05-21T04:55:00;15.40;99.90
736;DHT22;352;48.626;9.238;2023-05-21T04:57:27;15.40;99.90
736;DHT22;352;48.626;9.238;2023-05-21T04:59:54;15.50;99.90
736;DHT22;352;48.626;9.238;2023-05-21T05:02:22;15.50;99.90
736;DHT22;352;48.626;9.238;2023-05-21T05:04:50;15.50;99.90
736;DHT22;352;48.626;9.238;2023-05-21T05:07:17;15.50;99.90
736;DHT22;352;48.626;9.238;2023-05-21T05:09:43;15.50;99.90
736;DHT22;352;48.626;9.238;2023-05-21T05:12:10;15.50;99.90
736;DHT22;352;48.626;9.238;2023-05-21T05:14:37;15.60;99.90
736;DHT22;352;48.626;9.238;2023-05-21T05:17:04;15.60;99.90
736;DHT22;352;48.626;9.238;2023-05-21T05:19:32;15.70;99.90
736;DHT22;352;48.626;9.238;2023-05-21T05:22:00;15.70;99.90
736;DHT22;352;48.626;9.238;2023-05-21T05:24:27;15.70;99.90
736;DHT22;352;48.626;9.238;2023-05-21T05:26:54;15.80;99.90
736;DHT22;352;48.626;9.238;2023-05-21T05:29:21;15.80;99.90
736;DHT22;352;48.626;9.238;2023-05-21T05:31:47;15.90;99.90
736;DHT22;352;48.626;9.238;2023-05-21T05:34:14;15.90;99.90
736;DHT22;352;48.626;9.238;2023-05-21T05:36:41;16.00;99.90
736;DHT22;352;48.626;9.238;2023-05-21T05:39:09;16.00;99.90
736;DHT22;352;48.626;9.238;2023-05-21T05:41:36;16.10;99.90
736;DHT22;352;48.626;9.238;2023-05-21T05:44:03;16.20;99.90
736;DHT22;352;48.626;9.238;2023-05-21T05:46:29;16.20;99.90
736;DHT22;352;48.626;9.238;2023-05-21T05:48:56;16.50;99.90
736;DHT22;352;48.626;9.238;2023-05-21T05:51:23;16.30;99.90
736;DHT22;352;48.626;9.238;2023-05-21T05:53:50;16.40;99.90
736;DHT22;352;48.626;9.238;2023-05-21T05:56:18;16.40;99.90
736;DHT22;352;48.626;9.238;2023-05-21T05:58:45;16.40;99.90
736;DHT22;352;48.626;9.238;2023-05-21T06:01:12;16.50;99.90
736;DHT22;352;48.626;9.238;2023-05-21T06:03:39;16.50;99.90
736;DHT22;352;48.626;9.238;2023-05-21T06:06:05;16.50;99.90
736;DHT22;352;48.626;9.238;2023-05-21T06:08:32;16.50;99.90
736;DHT22;352;48.626;9.238;2023-05-21T06:11:00;16.50;99.90
736;DHT22;352;48.626;9.238;2023-05-21T06:13:28;16.60;99.90
736;DHT22;352;48.626;9.238;2023-05-21T06:15:55;16.60;99.90
736;DHT22;352;48.626;9.238;2023-05-21T06:18:21;16.70;99.90
736;DHT22;352;48.626;9.238;2023-05-21T06:20:48;16.70;99.90
736;DHT22;352;48.626;9.238;2023-05-21T06:23:15;16.80;99.90
736;DHT22;352;48.626;9.238;2023-05-21T06:25:41;16.90;99.90
736;DHT22;352;48.626;9.238;2023-05-21T06:28:08;17.00;99.90
736;DHT22;352;48.626;9.238;2023-05-21T06:30:36;17.10;99.90
736;DHT22;352;48.626;9.238;2023-05-21T06:33:03;17.20;99.90
736;DHT22;352;48.626;9.238;2023-05-21T06:35:30;17.30;99.90
736;DHT22;352;48.626;9.238;2023-05-21T06:37:56;17.50;99.90
736;DHT22;352;48.626;9.238;2023-05-21T06:40:23;17.60;99.90
736;DHT22;352;48.626;9.238;2023-05-21T06:42:50;17.80;99.90
736;DHT22;352;48.626;9.238;2023-05-21T06:45:17;18.10;99.90
736;DHT22;352;48.626;9.238;2023-05-21T06:47:45;18.30;99.90
736;DHT22;352;48.626;9.238;2023-05-21T06:50:12;18.50;99.90
736;DHT22;352;48.626;9.238;2023-05-21T06:52:38;18.80;99.90
736;DHT22;352;48.626;9.238;2023-05-21T06:55:05;19.10;99.90
736;DHT22;352;48.626;9.238;2023-05-21T06:57:32;19.30;99.90
736;DHT22;352;48.626;9.238;2023-05-21T07:02:26;20.30;99.90
736;DHT22;352;48.626;9.238;2023-05-21T07:04:54;20.40;99.90
736;DHT22;352;48.626;9.238;2023-05-21T07:07:21;20.70;99.90
736;DHT22;352;48.626;9.238;2023-05-21T07:09:47;21.00;99.90
736;DHT22;352;48.626;9.238;2023-05-21T07:12:14;21.40;99.90
736;DHT22;352;48.626;9.238;2023-05-21T07:14:41;21.70;99.90
736;DHT22;352;48.626;9.238;2023-05-21T07:17:08;21.80;99.90
736;DHT22;352;48.626;9.238;2023-05-21T07:19:34;22.00;99.90
736;DHT22;352;48.626;9.238;2023-05-21T07:22:04;22.00;99.90
736;DHT22;352;48.626;9.238;2023-05-21T07:24:31;22.10;99.90
736;DHT22;352;48.626;9.238;2023-05-21T07:31:52;22.90;99.90
736;DHT22;352;48.626;9.238;2023-05-21T07:34:19;22.60;99.90
736;DHT22;352;48.626;9.238;2023-05-21T07:36:45;23.40;99.90
736;DHT22;352;48.626;9.238;2023-05-21T07:39:13;23.30;99.90
736;DHT22;352;48.626;9.238;2023-05-21T07:41:40;23.50;99.90
736;DHT22;352;48.626;9.238;2023-05-21T07:44:07;23.50;99.90
736;DHT22;352;48.626;9.238;2023-05-21T07:46:33;23.50;99.90
736;DHT22;352;48.626;9.238;2023-05-21T07:49:00;23.30;99.90
736;DHT22;352;48.626;9.238;2023-05-21T07:51:27;23.60;99.40
736;DHT22;352;48.626;9.238;2023-05-21T07:53:54;23.70;98.90
736;DHT22;352;48.626;9.238;2023-05-21T07:56:22;23.90;99.60
736;DHT22;352;48.626;9.238;2023-05-21T07:58:49;24.10;99.90
736;DHT22;352;48.626;9.238;2023-05-21T08:01:16;24.20;99.70
736;DHT22;352;48.626;9.238;2023-05-21T08:03:42;24.20;98.80
736;DHT22;352;48.626;9.238;2023-05-21T08:06:09;24.20;99.20
736;DHT22;352;48.626;9.238;2023-05-21T08:08:36;24.20;97.80
736;DHT22;352;48.626;9.238;2023-05-21T08:11:03;24.20;98.60
736;DHT22;352;48.626;9.238;2023-05-21T08:13:31;24.30;98.90
736;DHT22;352;48.626;9.238;2023-05-21T08:15:57;24.60;98.10
736;DHT22;352;48.626;9.238;2023-05-21T08:18:24;24.90;97.80
736;DHT22;352;48.626;9.238;2023-05-21T08:20:51;25.30;99.90
736;DHT22;352;48.626;9.238;2023-05-21T08:23:18;25.70;99.90
736;DHT22;352;48.626;9.238;2023-05-21T08:25:45;25.70;99.90
736;DHT22;352;48.626;9.238;2023-05-21T08:30:40;26.60;95.70
736;DHT22;352;48.626;9.238;2023-05-21T08:47:54;27.00;92.40
736;DHT22;352;48.626;9.238;2023-05-21T08:50:24;27.00;93.10
736;DHT22;352;48.626;9.238;2023-05-21T08:52:51;27.30;99.90
736;DHT22;352;48.626;9.238;2023-05-21T08:55:20;27.40;92.60
736;DHT22;352;48.626;9.238;2023-05-21T09:00:15;27.20;91.90
736;DHT22;352;48.626;9.238;2023-05-21T09:02:42;27.30;99.90
736;DHT22;352;48.626;9.238;2023-05-21T09:05:12;27.30;99.90
736;DHT22;352;48.626;9.238;2023-05-21T09:07:45;27.00;99.90
736;DHT22;352;48.626;9.238;2023-05-21T09:10:13;27.20;92.20
736;DHT22;352;48.626;9.238;2023-05-21T09:12:39;27.50;92.40
736;DHT22;352;48.626;9.238;2023-05-21T09:15:07;27.90;91.60
736;DHT22;352;48.626;9.238;2023-05-21T09:17:34;28.10;91.70
736;DHT22;352;48.626;9.238;2023-05-21T09:20:09;28.20;90.50
736;DHT22;352;48.626;9.238;2023-05-21T09:22:40;27.90;89.50
736;DHT22;352;48.626;9.238;2023-05-21T09:25:09;27.60;90.60
736;DHT22;352;48.626;9.238;2023-05-21T09:27:36;27.40;91.70
736;DHT22;352;48.626;9.238;2023-05-21T09:30:06;27.40;91.30
736;DHT22;352;48.626;9.238;2023-05-21T09:32:35;27.40;90.70
736;DHT22;352;48.626;9.238;2023-05-21T09:35:09;27.50;90.40
736;DHT22;352;48.626;9.238;2023-05-21T09:37:37;27.60;90.40
736;DHT22;352;48.626;9.238;2023-05-21T09:40:13;27.30;90.10
736;DHT22;352;48.626;9.238;2023-05-21T09:42:42;27.20;90.70
736;DHT22;352;48.626;9.238;2023-05-21T09:45:09;27.10;90.80
736;DHT22;352;48.626;9.238;2023-05-21T09:47:40;27.00;90.60
736;DHT22;352;48.626;9.238;2023-05-21T09:50:09;27.10;91.50
736;DHT22;352;48.626;9.238;2023-05-21T09:52:36;27.20;90.90
736;DHT22;352;48.626;9.238;2023-05-21T09:55:03;27.10;90.30
736;DHT22;352;48.626;9.238;2023-05-21T09:57:31;27.10;90.90
736;DHT22;352;48.626;9.238;2023-05-21T09:59:58;27.10;90.60
736;DHT22;352;48.626;9.238;2023-05-21T10:02:24;27.00;90.40
736;DHT22;352;48.626;9.238;2023-05-21T10:04:52;26.80;91.20
736;DHT22;352;48.626;9.238;2023-05-21T10:07:20;26.80;91.10
736;DHT22;352;48.626;9.238;2023-05-21T10:09:52;26.80;91.00
736;DHT22;352;48.626;9.238;2023-05-21T10:12:21;26.80;90.90
736;DHT22;352;48.626;9.238;2023-05-21T10:14:53;26.90;90.80
736;DHT22;352;48.626;9.238;2023-05-21T10:17:24;26.80;90.80
736;DHT22;352;48.626;9.238;2023-05-21T10:19:53;26.80;90.60
736;DHT22;352;48.626;9.238;2023-05-21T10:22:22;26.90;90.70
736;DHT22;352;48.626;9.238;2023-05-21T10:24:51;26.80;90.70
736;DHT22;352;48.626;9.238;2023-05-21T10:27:18;26.90;90.00
736;DHT22;352;48.626;9.238;2023-05-21T10:29:47;27.00;90.00
736;DHT22;352;48.626;9.238;2023-05-21T10:32:15;27.00;89.80
736;DHT22;352;48.626;9.238;2023-05-21T10:34:42;27.10;90.50
736;DHT22;352;48.626;9.238;2023-05-21T10:37:12;27.30;90.40
736;DHT22;352;48.626;9.238;2023-05-21T10:42:15;27.50;87.70
736;DHT22;352;48.626;9.238;2023-05-21T10:44:56;27.40;89.30
736;DHT22;352;48.626;9.238;2023-05-21T10:47:47;27.40;88.90
736;DHT22;352;48.626;9.238;2023-05-21T10:50:47;27.40;87.70
736;DHT22;352;48.626;9.238;2023-05-21T10:53:24;27.40;89.50
736;DHT22;352;48.626;9.238;2023-05-21T10:56:04;27.40;87.20
736;DHT22;352;48.626;9.238;2023-05-21T11:01:34;27.20;87.60
736;DHT22;352;48.626;9.238;2023-05-21T11:04:04;27.00;87.40
736;DHT22;352;48.626;9.238;2023-05-21T11:06:31;27.10;87.90
736;DHT22;352;48.626;9.238;2023-05-21T11:09:00;27.40;99.90
736;DHT22;352;48.626;9.238;2023-05-21T11:11:40;27.00;89.60
736;DHT22;352;48.626;9.238;2023-05-21T11:14:31;27.00;88.60
736;DHT22;352;48.626;9.238;2023-05-21T11:17:00;27.00;90.20
736;DHT22;352;48.626;9.238;2023-05-21T11:19:36;27.00;91.00
736;DHT22;352;48.626;9.238;2023-05-21T11:22:20;26.80;90.10
736;DHT22;352;48.626;9.238;2023-05-21T11:24:47;26.60;90.30
736;DHT22;352;48.626;9.238;2023-05-21T11:27:30;26.50;90.40
736;DHT22;352;48.626;9.238;2023-05-21T11:29:58;26.50;90.70
736;DHT22;352;48.626;9.238;2023-05-21T11:32:25;26.50;91.10
736;DHT22;352;48.626;9.238;2023-05-21T11:34:58;26.40;90.60
736;DHT22;352;48.626;9.238;2023-05-21T11:37:30;26.40;91.10
736;DHT22;352;48.626;9.238;2023-05-21T11:40:17;26.40;91.20
736;DHT22;352;48.626;9.238;2023-05-21T11:42:49;26.30;91.40
736;DHT22;352;48.626;9.238;2023-05-21T11:45:17;26.30;91.60
736;DHT22;352;48.626;9.238;2023-05-21T11:47:45;26.30;92.10
736;DHT22;352;48.626;9.238;2023-05-21T11:50:14;26.20;91.70
736;DHT22;352;48.626;9.238;2023-05-21T11:52:41;26.20;91.80
736;DHT22;352;48.626;9.238;2023-05-21T11:55:08;26.20;92.30
736;DHT22;352;48.626;9.238;2023-05-21T11:57:36;26.20;91.70
736;DHT22;352;48.626;9.238;2023-05-21T12:00:04;26.20;91.40
736;DHT22;352;48.626;9.238;2023-05-21T12:02:38;26.10;91.20
736;DHT22;352;48.626;9.238;2023-05-21T12:05:09;26.00;91.30
736;DHT22;352;48.626;9.238;2023-05-21T12:07:37;25.90;91.40
736;DHT22;352;48.626;9.238;2023-05-21T12:10:04;25.80;90.50
736;DHT22;352;48.626;9.238;2023-05-21T12:12:32;25.80;90.10
736;DHT22;352;48.626;9.238;2023-05-21T12:14:58;25.80;89.70
736;DHT22;352;48.626;9.238;2023-05-21T12:17:26;25.90;90.00
736;DHT22;352;48.626;9.238;2023-05-21T12:19:55;25.90;90.00
736;DHT22;352;48.626;9.238;2023-05-21T12:22:23;25.90;89.70
736;DHT22;352;48.626;9.238;2023-05-21T12:24:53;25.80;89.20
736;DHT22;352;48.626;9.238;2023-05-21T12:27:22;25.90;89.70
736;DHT22;352;48.626;9.238;2023-05-21T12:29:49;25.80;89.40
736;DHT22;352;48.626;9.238;2023-05-21T12:32:18;25.80;87.70
736;DHT22;352;48.626;9.238;2023-05-21T12:34:45;25.70;88.80
736;DHT22;352;48.626;9.238;2023-05-21T12:37:15;25.70;89.70
736;DHT22;352;48.626;9.238;2023-05-21T12:39:43;25.70;88.90
736;DHT22;352;48.626;9.238;2023-05-21T12:42:11;25.70;89.10
736;DHT22;352;48.626;9.238;2023-05-21T12:44:39;25.70;89.60
736;DHT22;352;48.626;9.238;2023-05-21T12:47:06;25.60;89.70
736;DHT22;352;48.626;9.238;2023-05-21T12:49:34;25.60;90.40
736;DHT22;352;48.626;9.238;2023-05-21T12:52:02;25.50;89.80
736;DHT22;352;48.626;9.238;2023-05-21T12:54:31;25.50;89.80
736;DHT22;352;48.626;9.238;2023-05-21T12:57:05;25.50;90.00
736;DHT22;352;48.626;9.238;2023-05-21T12:59:43;25.50;89.20
736;DHT22;352;48.626;9.238;2023-05-21T13:02:19;25.50;90.30
736;DHT22;352;48.626;9.238;2023-05-21T13:04:46;25.40;90.10
736;DHT22;352;48.626;9.238;2023-05-21T13:07:14;25.40;90.10
736;DHT22;352;48.626;9.238;2023-05-21T13:09:41;25.30;89.30
736;DHT22;352;48.626;9.238;2023-05-21T13:12:08;25.20;90.30
736;DHT22;352;48.626;9.238;2023-05-21T13:14:34;25.30;90.00
736;DHT22;352;48.626;9.238;2023-05-21T13:17:03;25.30;90.30
736;DHT22;352;48.626;9.238;2023-05-21T13:19:29;25.30;90.80
736;DHT22;352;48.626;9.238;2023-05-21T13:21:56;25.30;91.20
736;DHT22;352;48.626;9.238;2023-05-21T13:24:23;25.40;91.10
736;DHT22;352;48.626;9.238;2023-05-21T13:26:49;25.40;90.80
736;DHT22;352;48.626;9.238;2023-05-21T13:29:16;25.40;90.90
736;DHT22;352;48.626;9.238;2023-05-21T13:31:43;25.40;90.30
736;DHT22;352;48.626;9.238;2023-05-21T13:34:11;25.40;90.50
736;DHT22;352;48.626;9.238;2023-05-21T13:36:39;25.30;89.30
736;DHT22;352;48.626;9.238;2023-05-21T13:39:06;25.20;93.00
736;DHT22;352;48.626;9.238;2023-05-21T13:41:33;25.40;90.70
736;DHT22;352;48.626;9.238;2023-05-21T13:44:00;25.40;90.20
736;DHT22;352;48.626;9.238;2023-05-21T13:46:26;25.50;89.30
736;DHT22;352;48.626;9.238;2023-05-21T13:48:53;25.30;90.60
736;DHT22;352;48.626;9.238;2023-05-21T13:51:21;25.40;90.50
736;DHT22;352;48.626;9.238;2023-05-21T13:53:48;25.40;90.20
736;DHT22;352;48.626;9.238;2023-05-21T13:56:15;25.50;89.60
736;DHT22;352;48.626;9.238;2023-05-21T13:58:41;25.50;91.40
736;DHT22;352;48.626;9.238;2023-05-21T14:01:08;25.60;91.40
736;DHT22;352;48.626;9.238;2023-05-21T14:03:36;25.60;90.60
736;DHT22;352;48.626;9.238;2023-05-21T14:06:03;25.50;89.80
736;DHT22;352;48.626;9.238;2023-05-21T14:08:31;25.50;90.20
736;DHT22;352;48.626;9.238;2023-05-21T14:10:58;25.50;88.10
736;DHT22;352;48.626;9.238;2023-05-21T14:13:25;25.50;89.90
736;DHT22;352;48.626;9.238;2023-05-21T14:15:51;25.50;87.90
736;DHT22;352;48.626;9.238;2023-05-21T14:18:18;25.50;88.30
736;DHT22;352;48.626;9.238;2023-05-21T14:20:45;25.50;89.00
736;DHT22;352;48.626;9.238;2023-05-21T14:23:11;25.50;90.50
736;DHT22;352;48.626;9.238;2023-05-21T14:25:40;25.50;90.10
736;DHT22;352;48.626;9.238;2023-05-21T14:28:07;25.50;89.30
736;DHT22;352;48.626;9.238;2023-05-21T14:30:34;25.50;89.50
736;DHT22;352;48.626;9.238;2023-05-21T14:33:00;25.50;90.10
736;DHT22;352;48.626;9.238;2023-05-21T14:35:27;25.50;90.10
736;DHT22;352;48.626;9.238;2023-05-21T14:37:55;25.50;89.30
736;DHT22;352;48.626;9.238;2023-05-21T14:40:22;25.40;89.20
736;DHT22;352;48.626;9.238;2023-05-21T14:42:50;25.40;88.00
736;DHT22;352;48.626;9.238;2023-05-21T14:45:17;25.40;88.30
736;DHT22;352;48.626;9.238;2023-05-21T14:47:44;25.30;90.10
736;DHT22;352;48.626;9.238;2023-05-21T14:50:13;25.30;90.00
736;DHT22;352;48.626;9.238;2023-05-21T14:52:40;25.20;90.30
736;DHT22;352;48.626;9.238;2023-05-21T14:55:08;25.20;90.60
736;DHT22;352;48.626;9.238;2023-05-21T14:57:36;25.20;89.80
736;DHT22;352;48.626;9.238;2023-05-21T15:00:06;25.20;90.00
736;DHT22;352;48.626;9.238;2023-05-21T15:02:33;25.10;89.50
736;DHT22;352;48.626;9.238;2023-05-21T15:04:59;25.10;88.30
736;DHT22;352;48.626;9.238;2023-05-21T15:07:26;25.00;88.70
736;DHT22;352;48.626;9.238;2023-05-21T15:09:53;25.00;90.50
736;DHT22;352;48.626;9.238;2023-05-21T15:12:20;25.00;90.60
736;DHT22;352;48.626;9.238;2023-05-21T15:14:46;24.90;89.80
736;DHT22;352;48.626;9.238;2023-05-21T15:17:14;24.90;90.10
736;DHT22;352;48.626;9.238;2023-05-21T15:19:41;24.90;90.30
736;DHT22;352;48.626;9.238;2023-05-21T15:22:08;24.90;90.50
736;DHT22;352;48.626;9.238;2023-05-21T15:24:34;24.80;90.10
736;DHT22;352;48.626;9.238;2023-05-21T15:27:01;24.80;91.20
736;DHT22;352;48.626;9.238;2023-05-21T15:29:28;24.70;91.00
736;DHT22;352;48.626;9.238;2023-05-21T15:31:55;24.70;91.30
736;DHT22;352;48.626;9.238;2023-05-21T15:34:23;24.60;91.20
736;DHT22;352;48.626;9.238;2023-05-21T15:36:50;24.50;91.20
736;DHT22;352;48.626;9.238;2023-05-21T15:39:16;24.40;92.00
736;DHT22;352;48.626;9.238;2023-05-21T15:41:43;24.40;92.00
736;DHT22;352;48.626;9.238;2023-05-21T15:44:10;24.40;92.40
736;DHT22;352;48.626;9.238;2023-05-21T15:46:36;24.30;92.60
736;DHT22;352;48.626;9.238;2023-05-21T15:49:03;24.10;94.40
736;DHT22;352;48.626;9.238;2023-05-21T15:51:31;24.20;92.90
736;DHT22;352;48.626;9.238;2023-05-21T15:53:58;24.20;93.20
736;DHT22;352;48.626;9.238;2023-05-21T15:56:25;24.20;93.30
736;DHT22;352;48.626;9.238;2023-05-21T15:58:52;23.70;93.40
736;DHT22;352;48.626;9.238;2023-05-21T16:01:18;24.00;92.30
736;DHT22;352;48.626;9.238;2023-05-21T16:03:45;24.00;92.30
736;DHT22;352;48.626;9.238;2023-05-21T16:06:12;24.00;93.20
736;DHT22;352;48.626;9.238;2023-05-21T16:08:40;24.00;93.60
736;DHT22;352;48.626;9.238;2023-05-21T16:11:06;23.90;93.50
736;DHT22;352;48.626;9.238;2023-05-21T16:13:33;23.90;93.30
736;DHT22;352;48.626;9.238;2023-05-21T16:16:00;23.90;92.90
736;DHT22;352;48.626;9.238;2023-05-21T16:18:26;23.80;92.60
736;DHT22;352;48.626;9.238;2023-05-21T16:20:54;23.80;92.90
736;DHT22;352;48.626;9.238;2023-05-21T16:23:21;23.80;93.40
736;DHT22;352;48.626;9.238;2023-05-21T16:25:49;23.80;93.90
736;DHT22;352;48.626;9.238;2023-05-21T16:28:17;23.70;94.10
736;DHT22;352;48.626;9.238;2023-05-21T16:30:43;23.70;93.70
736;DHT22;352;48.626;9.238;2023-05-21T16:33:10;23.60;93.50
736;DHT22;352;48.626;9.238;2023-05-21T16:35:37;23.60;94.10
736;DHT22;352;48.626;9.238;2023-05-21T16:38:04;23.60;95.20
736;DHT22;352;48.626;9.238;2023-05-21T16:40:30;23.60;94.90
736;DHT22;352;48.626;9.238;2023-05-21T16:42:58;23.60;95.60
736;DHT22;352;48.626;9.238;2023-05-21T16:45:25;23.60;95.10
736;DHT22;352;48.626;9.238;2023-05-21T16:47:52;23.60;95.80
736;DHT22;352;48.626;9.238;2023-05-21T16:50:19;23.60;95.50
736;DHT22;352;48.626;9.238;2023-05-21T16:52:45;23.60;94.80
736;DHT22;352;48.626;9.238;2023-05-21T16:55:12;23.60;94.90
736;DHT22;352;48.626;9.238;2023-05-21T16:57:39;23.60;95.60
736;DHT22;352;48.626;9.238;2023-05-21T17:00:08;23.60;95.10
736;DHT22;352;48.626;9.238;2023-05-21T17:02:34;23.50;95.30
736;DHT22;352;48.626;9.238;2023-05-21T17:05:01;23.60;95.20
736;DHT22;352;48.626;9.238;2023-05-21T17:07:28;23.50;95.80
736;DHT22;352;48.626;9.238;2023-05-21T17:09:55;23.50;96.30
736;DHT22;352;48.626;9.238;2023-05-21T17:12:22;23.40;97.30